createdAt,value
2018-08-09T00:02:07.390Z,78.20
2018-08-09T00:04:35.717Z,78.30
2018-08-09T00:07:03.948Z,78.40
2018-08-09T00:09:32.295Z,78.70
2018-08-09T00:12:00.584Z,78.80
2018-08-09T00:14:28.948Z,79.10
2018-08-09T00:16:57.226Z,79.20
2018-08-09T00:19:30.980Z,79.40
2018-08-09T00:21:59.281Z,79.50
2018-08-09T00:24:27.557Z,79.70
2018-08-09T00:26:55.805Z,79.80
2018-08-09T00:29:24.077Z,80.20
2018-08-09T00:31:52.356Z,80.30
2018-08-09T00:34:20.623Z,80.40
2018-08-09T00:36:48.896Z,80.50
2018-08-09T00:39:17.187Z,80.70
2018-08-09T00:41:45.454Z,80.90
2018-08-09T00:44:13.738Z,81.20
2018-08-09T00:46:42.001Z,81.60
2018-08-09T00:49:10.376Z,81.80
2018-08-09T00:51:38.731Z,81.90
2018-08-09T00:54:07.696Z,82.10
2018-08-09T00:56:35.987Z,82.60
2018-08-09T00:59:04.692Z,82.80
2018-08-09T01:01:33.052Z,83.00
2018-08-09T01:04:01.332Z,83.40
2018-08-09T01:06:29.608Z,83.50
2018-08-09T01:09:03.112Z,83.60
2018-08-09T01:11:31.384Z,83.80
2018-08-09T01:13:59.683Z,84.70
2018-08-09T01:16:27.975Z,84.10
2018-08-09T01:18:56.207Z,84.40
2018-08-09T01:21:24.529Z,84.70
2018-08-09T01:23:52.804Z,84.90
2018-08-09T01:26:21.300Z,85.10
2018-08-09T01:28:49.556Z,85.20
2018-08-09T01:31:35.601Z,85.20
2018-08-09T01:34:05.113Z,85.20
2018-08-09T01:36:34.148Z,85.10
2018-08-09T01:39:03.448Z,85.30
2018-08-09T01:41:31.716Z,85.40
2018-08-09T01:44:02.514Z,85.40
2018-08-09T01:46:30.996Z,85.50
2018-08-09T01:48:59.893Z,85.80
2018-08-09T01:51:28.816Z,86.00
2018-08-09T01:53:57.216Z,86.20
2018-08-09T01:56:25.575Z,86.40
2018-08-09T01:58:54.536Z,87.10
2018-08-09T02:01:22.847Z,86.60
2018-08-09T02:03:51.116Z,86.80
2018-08-09T02:06:19.896Z,86.90
2018-08-09T02:08:48.744Z,87.20
2018-08-09T02:11:17.082Z,87.40
2018-08-09T02:13:45.353Z,87.40
2018-08-09T02:16:13.724Z,87.40
2018-08-09T02:18:41.921Z,87.80
2018-08-09T02:21:10.977Z,88.00
2018-08-09T02:23:39.253Z,88.20
2018-08-09T02:26:07.529Z,88.40
2018-08-09T02:28:36.137Z,88.50
2018-08-09T02:31:04.533Z,88.60
2018-08-09T02:33:32.808Z,88.60
2018-08-09T02:36:01.081Z,88.70
2018-08-09T02:38:29.329Z,88.90
2018-08-09T02:40:57.717Z,88.90
2018-08-09T02:43:26.012Z,89.10
2018-08-09T02:45:54.273Z,89.20
2018-08-09T02:48:22.571Z,89.20
2018-08-09T02:50:50.846Z,89.40
2018-08-09T02:53:19.189Z,89.30
2018-08-09T02:55:51.684Z,89.40
2018-08-09T02:58:20.148Z,89.30
2018-08-09T03:00:48.496Z,89.30
2018-08-09T03:03:16.796Z,89.40
2018-08-09T03:05:51.665Z,89.50
2018-08-09T03:08:19.949Z,89.70
2018-08-09T03:10:48.193Z,89.70
2018-08-09T03:13:16.498Z,89.90
2018-08-09T03:15:44.824Z,90.00
2018-08-09T03:18:13.053Z,90.00
2018-08-09T03:20:41.323Z,90.00
2018-08-09T03:23:09.601Z,90.10
2018-08-09T03:25:37.941Z,90.10
2018-08-09T03:28:06.225Z,90.10
2018-08-09T03:30:34.570Z,90.10
2018-08-09T03:33:02.862Z,90.10
2018-08-09T03:35:31.134Z,90.10
2018-08-09T03:37:59.536Z,90.10
2018-08-09T03:40:28.461Z,90.10
2018-08-09T03:42:56.934Z,90.10
2018-08-09T03:45:25.240Z,90.10
2018-08-09T03:47:53.484Z,90.10
2018-08-09T03:50:21.768Z,90.10
2018-08-09T03:52:50.051Z,90.10
2018-08-09T03:55:18.324Z,90.10
2018-08-09T03:57:46.762Z,90.20
2018-08-09T04:00:15.057Z,90.20
2018-08-09T04:02:43.317Z,90.30
2018-08-09T04:05:11.621Z,90.30
2018-08-09T04:07:40.414Z,90.40
2018-08-09T04:10:09.145Z,90.50
2018-08-09T04:12:37.506Z,90.50
2018-08-09T04:15:07.285Z,90.50
2018-08-09T04:17:35.570Z,90.50
2018-08-09T04:20:04.106Z,90.50
2018-08-09T04:22:32.396Z,90.60
2018-08-09T04:25:00.685Z,90.50
2018-08-09T04:27:28.977Z,90.50
2018-08-09T04:29:57.319Z,90.50
2018-08-09T04:32:25.602Z,90.50
2018-08-09T04:34:53.894Z,90.60
2018-08-09T04:37:22.189Z,90.60
2018-08-09T04:39:50.564Z,90.50
2018-08-09T04:42:18.845Z,90.60
2018-08-09T04:44:47.372Z,90.60
2018-08-09T04:47:15.665Z,90.90
2018-08-09T04:49:43.960Z,90.60
2018-08-09T04:52:12.330Z,90.70
2018-08-09T04:54:40.556Z,90.70
2018-08-09T04:57:08.833Z,90.80
2018-08-09T04:59:37.265Z,90.80
2018-08-09T05:02:05.599Z,90.90
2018-08-09T05:04:33.958Z,90.90
2018-08-09T05:07:02.676Z,90.90
2018-08-09T05:09:30.976Z,90.90
2018-08-09T05:11:59.492Z,90.90
2018-08-09T05:14:27.781Z,90.90
2018-08-09T05:16:56.026Z,90.90
2018-08-09T05:19:24.264Z,90.90
2018-08-09T05:21:52.570Z,91.00
2018-08-09T05:24:20.860Z,91.00
2018-08-09T05:26:49.077Z,91.00
2018-08-09T05:29:17.450Z,91.10
2018-08-09T05:31:45.689Z,91.20
2018-08-09T05:34:14.051Z,91.20
2018-08-09T05:36:42.288Z,91.20
2018-08-09T05:39:11.645Z,91.30
2018-08-09T05:41:40.177Z,91.20
2018-08-09T05:44:08.464Z,91.30
2018-08-09T05:46:36.768Z,91.20
2018-08-09T05:49:05.152Z,91.20
2018-08-09T05:51:33.471Z,91.10
2018-08-09T05:54:01.737Z,91.10
2018-08-09T05:56:30.293Z,91.00
2018-08-09T05:58:58.813Z,91.00
2018-08-09T06:01:27.197Z,90.80
2018-08-09T06:03:55.684Z,90.70
2018-08-09T06:06:24.017Z,90.60
2018-08-09T06:08:52.378Z,90.40
2018-08-09T06:11:20.652Z,90.20
2018-08-09T06:13:48.929Z,90.10
2018-08-09T06:16:17.260Z,90.00
2018-08-09T06:18:45.738Z,90.10
2018-08-09T06:21:13.996Z,89.50
2018-08-09T06:23:42.294Z,89.60
2018-08-09T06:26:10.721Z,88.90
2018-08-09T06:28:39.012Z,88.20
2018-08-09T06:31:07.325Z,87.60
2018-08-09T06:33:35.677Z,87.20
2018-08-09T06:36:03.879Z,86.80
2018-08-09T06:38:32.217Z,86.30
2018-08-09T06:41:00.742Z,85.30
2018-08-09T06:43:29.039Z,84.70
2018-08-09T06:45:57.343Z,84.20
2018-08-09T06:48:25.670Z,83.30
2018-08-09T06:50:54.004Z,82.30
2018-08-09T06:53:22.389Z,81.40
2018-08-09T06:55:57.376Z,81.00
2018-08-09T06:58:25.741Z,80.50
2018-08-09T07:00:54.019Z,78.70
2018-08-09T07:03:22.284Z,77.00
2018-08-09T07:05:50.574Z,76.70
2018-08-09T07:08:18.862Z,75.70
2018-08-09T07:10:47.150Z,74.20
2018-08-09T07:13:15.518Z,73.90
2018-08-09T07:15:43.844Z,72.70
2018-08-09T07:18:12.243Z,71.60
2018-08-09T07:20:40.557Z,71.70
2018-08-09T07:23:08.774Z,71.50
2018-08-09T07:25:37.092Z,70.90
2018-08-09T07:28:06.618Z,70.60
2018-08-09T07:30:34.933Z,69.80
2018-08-09T07:33:03.250Z,69.40
2018-08-09T07:35:31.492Z,69.30
2018-08-09T07:37:59.853Z,69.00
2018-08-09T07:40:28.113Z,68.70
2018-08-09T07:42:56.447Z,68.00
2018-08-09T07:45:24.788Z,67.60
2018-08-09T07:47:53.192Z,67.60
2018-08-09T07:50:21.556Z,67.50
2018-08-09T07:52:50.501Z,66.90
2018-08-09T07:55:18.815Z,66.30
2018-08-09T07:57:47.133Z,66.10
2018-08-09T08:00:15.471Z,65.40
2018-08-09T08:02:44.033Z,64.80
2018-08-09T08:05:12.275Z,63.60
2018-08-09T08:07:41.133Z,63.70
2018-08-09T08:10:10.324Z,63.80
2018-08-09T08:12:38.917Z,63.80
2018-08-09T08:15:08.362Z,63.40
2018-08-09T08:17:36.582Z,63.30
2018-08-09T08:20:05.371Z,63.20
2018-08-09T08:22:33.800Z,62.60
2018-08-09T08:25:02.102Z,62.50
2018-08-09T08:27:30.390Z,62.10
2018-08-09T08:29:58.804Z,61.80
2018-08-09T08:32:27.217Z,61.50
2018-08-09T08:34:55.465Z,60.50
2018-08-09T08:37:23.732Z,60.00
2018-08-09T08:39:52.013Z,59.80
2018-08-09T08:42:20.426Z,59.40
2018-08-09T08:44:48.737Z,58.60
2018-08-09T08:47:17.040Z,58.00
2018-08-09T08:49:51.940Z,57.50
2018-08-09T08:52:20.224Z,57.30
2018-08-09T08:54:48.506Z,57.00
2018-08-09T08:57:16.783Z,56.80
2018-08-09T08:59:45.137Z,56.50
2018-08-09T09:02:13.503Z,56.20
2018-08-09T09:04:41.782Z,55.60
2018-08-09T09:07:10.310Z,54.60
2018-08-09T09:09:38.533Z,54.00
2018-08-09T09:12:07.290Z,52.90
2018-08-09T09:14:35.750Z,51.90
2018-08-09T09:17:04.049Z,51.10
2018-08-09T09:19:32.369Z,49.90
2018-08-09T09:22:00.734Z,49.50
2018-08-09T09:24:29.005Z,48.40
2018-08-09T09:26:57.963Z,46.90
2018-08-09T09:29:26.332Z,46.40
2018-08-09T09:31:54.660Z,45.70
2018-08-09T09:34:22.996Z,45.10
2018-08-09T09:36:51.333Z,44.20
2018-08-09T09:39:19.611Z,44.00
2018-08-09T09:41:47.953Z,44.30
2018-08-09T09:44:16.277Z,44.30
2018-08-09T09:46:44.542Z,44.30
2018-08-09T09:49:12.914Z,43.60
2018-08-09T09:51:41.191Z,43.10
2018-08-09T09:54:09.432Z,42.80
2018-08-09T09:56:37.848Z,42.60
2018-08-09T09:59:06.226Z,42.50
2018-08-09T10:01:35.931Z,41.90
2018-08-09T10:04:05.493Z,41.70
2018-08-09T10:06:34.530Z,41.40
2018-08-09T10:09:03.706Z,41.10
2018-08-09T10:11:32.064Z,40.80
2018-08-09T10:14:00.362Z,40.40
2018-08-09T10:16:28.636Z,40.40
2018-08-09T10:18:56.900Z,40.00
2018-08-09T10:21:25.157Z,39.60
2018-08-09T10:23:53.365Z,39.40
2018-08-09T10:26:21.761Z,39.40
2018-08-09T10:28:50.031Z,39.50
2018-08-09T10:31:18.290Z,39.80
2018-08-09T10:33:46.617Z,40.80
2018-08-09T10:36:14.876Z,40.10
2018-08-09T10:38:43.196Z,39.80
2018-08-09T10:41:12.325Z,39.80
2018-08-09T10:43:40.612Z,39.70
2018-08-09T10:46:08.883Z,39.40
2018-08-09T10:48:37.160Z,39.00
2018-08-09T10:51:05.421Z,39.00
2018-08-09T10:53:33.707Z,39.50
2018-08-09T10:56:01.962Z,40.10
2018-08-09T10:58:30.248Z,40.50
2018-08-09T11:00:58.649Z,40.80
2018-08-09T11:03:26.994Z,41.30
2018-08-09T11:05:55.513Z,41.80
2018-08-09T11:08:23.910Z,42.20
2018-08-09T11:10:52.285Z,42.00
2018-08-09T11:13:20.838Z,41.90
2018-08-09T11:15:49.153Z,42.00
2018-08-09T11:18:17.523Z,42.00
2018-08-09T11:20:45.978Z,42.10
2018-08-09T11:23:14.232Z,42.20
2018-08-09T11:25:42.520Z,42.20
2018-08-09T11:28:10.776Z,42.70
2018-08-09T11:30:39.037Z,43.60
2018-08-09T11:33:07.345Z,43.50
2018-08-09T11:35:35.622Z,43.40
2018-08-09T11:38:03.894Z,43.60
2018-08-09T11:40:32.402Z,44.10
2018-08-09T11:43:00.738Z,44.30
2018-08-09T11:45:29.041Z,44.90
2018-08-09T11:47:57.317Z,45.20
2018-08-09T11:50:25.572Z,45.70
2018-08-09T11:52:53.929Z,45.90
2018-08-09T11:55:22.195Z,46.00
2018-08-09T11:57:50.452Z,46.20
2018-08-09T12:00:18.749Z,46.30
2018-08-09T12:02:47.103Z,46.50
2018-08-09T12:05:15.588Z,47.00
2018-08-09T12:07:43.880Z,47.60
2018-08-09T12:10:12.654Z,47.80
2018-08-09T12:12:40.987Z,47.50
2018-08-09T12:15:09.782Z,48.30
2018-08-09T12:17:38.045Z,47.50
2018-08-09T12:20:06.844Z,47.20
2018-08-09T12:22:35.435Z,46.90
2018-08-09T12:25:03.937Z,46.90
2018-08-09T12:27:32.287Z,47.30
2018-08-09T12:30:00.593Z,47.90
2018-08-09T12:32:28.896Z,48.10
2018-08-09T12:34:57.244Z,48.00
2018-08-09T12:37:25.594Z,48.00
2018-08-09T12:39:53.892Z,46.60
2018-08-09T12:42:22.195Z,45.60
2018-08-09T12:44:50.600Z,44.40
2018-08-09T12:47:18.937Z,43.30
2018-08-09T12:49:47.232Z,42.40
2018-08-09T12:52:15.506Z,41.70
2018-08-09T12:54:43.892Z,40.90
2018-08-09T12:57:12.269Z,40.40
2018-08-09T12:59:40.594Z,40.20
2018-08-09T13:02:09.416Z,40.00
2018-08-09T13:04:37.921Z,40.30
2018-08-09T13:07:06.253Z,40.70
2018-08-09T13:09:34.540Z,40.80
2018-08-09T13:12:02.981Z,40.90
2018-08-09T13:14:31.311Z,40.90
2018-08-09T13:16:59.849Z,40.80
2018-08-09T13:19:28.198Z,40.90
2018-08-09T13:21:56.477Z,40.80
2018-08-09T13:24:24.798Z,40.80
2018-08-09T13:26:53.121Z,41.10
2018-08-09T13:29:21.417Z,41.30
2018-08-09T13:31:49.656Z,41.50
2018-08-09T13:34:17.909Z,40.80
2018-08-09T13:36:46.177Z,40.70
2018-08-09T13:39:14.560Z,40.80
2018-08-09T13:41:44.280Z,40.20
2018-08-09T13:44:12.873Z,40.80
2018-08-09T13:46:41.210Z,41.00
2018-08-09T13:49:09.650Z,41.00
2018-08-09T13:51:38.616Z,41.40
2018-08-09T13:54:06.996Z,41.90
2018-08-09T13:56:35.300Z,42.00
2018-08-09T13:59:04.005Z,42.50
2018-08-09T14:01:32.346Z,42.60
2018-08-09T14:04:00.822Z,42.80
2018-08-09T14:06:29.132Z,43.00
2018-08-09T14:08:57.408Z,43.10
2018-08-09T14:11:25.689Z,42.80
2018-08-09T14:13:54.077Z,42.30
2018-08-09T14:16:22.345Z,41.80
2018-08-09T14:18:51.625Z,41.80
2018-08-09T14:21:20.008Z,41.40
2018-08-09T14:23:48.322Z,40.90
2018-08-09T14:26:16.752Z,40.50
2018-08-09T14:28:45.256Z,39.50
2018-08-09T14:31:13.589Z,38.10
2018-08-09T14:33:41.867Z,37.10
2018-08-09T14:36:10.175Z,36.60
2018-08-09T14:38:38.660Z,36.20
2018-08-09T14:41:06.952Z,36.10
2018-08-09T14:43:35.262Z,35.20
2018-08-09T14:46:03.640Z,35.00
2018-08-09T14:48:32.110Z,35.50
2018-08-09T14:51:00.449Z,36.10
2018-08-09T14:53:28.745Z,36.60
2018-08-09T14:55:57.036Z,37.20
2018-08-09T14:58:25.333Z,37.30
2018-08-09T15:00:53.700Z,37.60
2018-08-09T15:03:22.130Z,38.10
2018-08-09T15:05:50.717Z,38.70
2018-08-09T15:08:19.724Z,39.20
2018-08-09T15:10:47.990Z,39.30
2018-08-09T15:13:16.341Z,39.40
2018-08-09T15:15:44.593Z,39.70
2018-08-09T15:18:12.906Z,40.00
2018-08-09T15:20:41.229Z,40.40
2018-08-09T15:23:09.669Z,40.60
2018-08-09T15:25:37.983Z,40.80
2018-08-09T15:28:06.877Z,41.00
2018-08-09T15:30:35.177Z,41.10
2018-08-09T15:35:38.201Z,41.50
2018-08-09T15:38:06.667Z,41.90
2018-08-09T15:40:34.869Z,42.10
2018-08-09T15:43:03.234Z,42.70
2018-08-09T15:45:31.561Z,42.80
2018-08-09T15:47:59.960Z,42.90
2018-08-09T15:50:28.218Z,43.10
2018-08-09T15:52:56.608Z,43.30
2018-08-09T15:55:24.898Z,43.30
2018-08-09T15:57:54.010Z,43.60
2018-08-09T16:00:23.731Z,44.00
2018-08-09T16:02:52.153Z,44.10
2018-08-09T16:05:20.536Z,44.30
2018-08-09T16:07:48.863Z,44.50
2018-08-09T16:10:18.085Z,44.50
2018-08-09T16:12:46.673Z,44.70
2018-08-09T16:15:16.503Z,44.80
2018-08-09T16:17:45.903Z,44.90
2018-08-09T16:20:14.220Z,45.00
2018-08-09T16:22:43.443Z,45.10
2018-08-09T16:25:18.101Z,45.20
2018-08-09T16:27:46.789Z,45.60
2018-08-09T16:30:23.664Z,45.60
2018-08-09T16:32:52.013Z,46.00
2018-08-09T16:35:20.304Z,46.50
2018-08-09T16:37:48.761Z,47.20
2018-08-09T16:40:18.512Z,47.70
2018-08-09T16:42:46.980Z,48.10
2018-08-09T16:45:16.388Z,48.60
2018-08-09T16:47:44.766Z,49.10
2018-08-09T16:50:16.618Z,49.30
2018-08-09T16:52:45.596Z,49.90
2018-08-09T16:55:14.771Z,50.20
2018-08-09T16:57:43.292Z,50.50
2018-08-09T17:00:14.136Z,50.80
2018-08-09T17:02:42.742Z,51.10
2018-08-09T17:05:16.913Z,51.50
2018-08-09T17:07:45.354Z,51.80
2018-08-09T17:10:15.440Z,52.10
2018-08-09T17:12:43.776Z,52.30
2018-08-09T17:15:15.783Z,52.60
2018-08-09T17:17:44.101Z,53.10
2018-08-09T17:20:18.109Z,54.00
2018-08-09T17:22:46.490Z,53.60
2018-08-09T17:25:14.933Z,53.80
2018-08-09T17:27:44.534Z,54.20
2018-08-09T17:30:14.374Z,54.50
2018-08-09T17:32:42.773Z,57.70
2018-08-09T17:35:12.565Z,62.10
2018-08-09T17:37:41.029Z,67.10
2018-08-09T17:40:15.231Z,71.40
2018-08-09T17:42:43.494Z,75.30
2018-08-09T17:45:12.231Z,78.90
2018-08-09T17:47:40.590Z,82.90
2018-08-09T17:50:09.253Z,84.10
2018-08-09T17:52:37.827Z,85.90
2018-08-09T17:55:08.504Z,87.40
2018-08-09T17:57:36.849Z,89.00
2018-08-09T18:00:07.889Z,89.90
2018-08-09T18:02:36.234Z,90.20
2018-08-09T18:05:05.924Z,90.50
2018-08-09T18:07:34.319Z,90.90
2018-08-09T18:10:02.641Z,91.30
2018-08-09T18:12:31.009Z,91.40
2018-08-09T18:14:59.279Z,91.70
2018-08-09T18:17:27.611Z,92.00
2018-08-09T18:19:56.045Z,92.20
2018-08-09T18:22:24.425Z,92.20
2018-08-09T18:24:52.714Z,92.50
2018-08-09T18:27:21.004Z,92.70
2018-08-09T18:29:49.914Z,92.70
2018-08-09T18:32:18.240Z,93.00
2018-08-09T18:34:46.525Z,93.20
2018-08-09T18:37:14.804Z,93.40
2018-08-09T18:39:43.101Z,93.50
2018-08-09T18:42:11.413Z,93.60
2018-08-09T18:44:39.722Z,93.80
2018-08-09T18:47:08.052Z,93.90
2018-08-09T18:49:36.396Z,94.00
2018-08-09T18:52:04.937Z,94.20
2018-08-09T18:54:33.205Z,94.30
2018-08-09T18:57:01.514Z,94.40
2018-08-09T18:59:29.825Z,94.50
2018-08-09T19:01:58.185Z,95.00
2018-08-09T19:04:57.509Z,94.90
2018-08-09T19:07:25.784Z,95.90
2018-08-09T19:09:54.090Z,95.80
2018-08-09T19:12:22.417Z,95.70
2018-08-09T19:14:50.665Z,95.70
2018-08-09T19:17:18.955Z,95.80
2018-08-09T19:19:47.232Z,95.90
2018-08-09T19:22:15.513Z,95.90
2018-08-09T19:24:43.805Z,96.00
2018-08-09T19:27:12.118Z,95.90
2018-08-09T19:29:40.380Z,96.10
2018-08-09T19:32:08.741Z,96.10
2018-08-09T19:34:37.038Z,96.10
2018-08-09T19:37:05.324Z,96.10
2018-08-09T19:39:33.625Z,96.20
2018-08-09T19:42:01.966Z,96.20
2018-08-09T19:44:30.256Z,96.10
2018-08-09T19:46:58.587Z,96.30
2018-08-09T19:49:26.878Z,96.40
2018-08-09T19:51:55.188Z,96.50
2018-08-09T19:54:23.517Z,96.50
2018-08-09T19:56:51.749Z,96.50
2018-08-09T19:59:20.078Z,96.60
2018-08-09T20:01:48.354Z,96.60
2018-08-09T20:04:16.661Z,96.60
2018-08-09T20:06:44.997Z,96.70
2018-08-09T20:09:13.260Z,96.80
2018-08-09T20:11:41.614Z,96.80
2018-08-09T20:14:09.941Z,97.00
2018-08-09T20:16:38.270Z,97.00
2018-08-09T20:19:06.612Z,97.10
2018-08-09T20:21:34.926Z,97.20
2018-08-09T20:24:03.203Z,97.20
2018-08-09T20:26:31.723Z,97.30
2018-08-09T20:29:00.134Z,97.30
2018-08-09T20:31:28.495Z,97.40
2018-08-09T20:33:56.828Z,97.40
2018-08-09T20:36:25.114Z,97.50
2018-08-09T20:38:53.384Z,97.60
2018-08-09T20:41:21.884Z,97.70
2018-08-09T20:43:50.192Z,97.70
2018-08-09T20:46:18.461Z,97.90
2018-08-09T20:48:46.757Z,97.90
2018-08-09T20:51:15.053Z,98.00
2018-08-09T20:53:43.337Z,98.00
2018-08-09T20:56:11.595Z,98.00
2018-08-09T20:58:39.876Z,98.00
2018-08-09T21:01:08.224Z,98.10
2018-08-09T21:03:36.521Z,98.20
2018-08-09T21:06:04.921Z,98.20
2018-08-09T21:08:33.222Z,98.30
2018-08-09T21:11:01.538Z,98.40
2018-08-09T21:13:29.870Z,98.40
2018-08-09T21:15:58.120Z,98.50
2018-08-09T21:18:26.409Z,98.50
2018-08-09T21:20:54.681Z,98.50
2018-08-09T21:23:23.000Z,98.70
2018-08-09T21:25:51.250Z,98.70
2018-08-09T21:28:19.526Z,98.70
2018-08-09T21:30:47.885Z,99.00
2018-08-09T21:33:16.184Z,98.80
2018-08-09T21:35:44.456Z,98.80
2018-08-09T21:38:12.781Z,98.90
2018-08-09T21:40:41.077Z,98.90
2018-08-09T21:43:09.477Z,98.90
2018-08-09T21:45:37.772Z,99.00
2018-08-09T21:48:06.397Z,99.00
2018-08-09T21:50:34.680Z,99.00
2018-08-09T21:53:02.982Z,99.10
2018-08-09T21:55:31.286Z,99.00
2018-08-09T21:57:59.636Z,99.10
2018-08-09T22:00:41.730Z,99.20
2018-08-09T22:03:10.018Z,99.20
2018-08-09T22:05:43.692Z,99.20
2018-08-09T22:08:17.442Z,99.20
2018-08-09T22:10:51.096Z,99.20
2018-08-09T22:13:24.845Z,99.30
2018-08-09T22:15:58.548Z,99.30
2018-08-09T22:20:36.937Z,99.40
2018-08-09T22:23:05.869Z,99.40
2018-08-09T22:25:34.146Z,99.20
2018-08-09T22:28:02.526Z,99.30
2018-08-09T22:30:30.773Z,99.80
2018-08-09T22:32:59.076Z,99.50
2018-08-09T22:35:27.385Z,99.60
2018-08-09T22:37:55.630Z,99.70
2018-08-09T22:40:23.914Z,99.70
2018-08-09T22:42:52.182Z,99.60
2018-08-09T22:45:20.434Z,99.70
2018-08-09T22:47:48.709Z,99.70
2018-08-09T22:50:17.008Z,99.70
2018-08-09T22:52:45.249Z,99.70
2018-08-09T22:55:13.616Z,99.90
2018-08-09T22:57:41.860Z,99.80
2018-08-09T23:00:18.469Z,99.80
2018-08-09T23:02:46.720Z,99.80
2018-08-09T23:05:15.024Z,99.80
2018-08-09T23:07:43.345Z,99.80
2018-08-09T23:10:11.695Z,99.80
2018-08-09T23:12:39.963Z,99.90
2018-08-09T23:15:08.785Z,99.90
2018-08-09T23:17:37.092Z,99.90
2018-08-09T23:20:06.377Z,99.90
2018-08-09T23:22:34.677Z,99.80
2018-08-09T23:25:03.445Z,99.90
2018-08-09T23:27:31.744Z,99.80
2018-08-09T23:30:00.260Z,99.80
2018-08-09T23:32:28.565Z,99.60
2018-08-09T23:34:56.915Z,99.20
2018-08-09T23:37:25.229Z,98.70
2018-08-09T23:39:53.501Z,98.40
2018-08-09T23:42:21.781Z,98.10
2018-08-09T23:44:50.293Z,97.90
2018-08-09T23:47:18.624Z,98.00
2018-08-09T23:49:46.900Z,97.80
2018-08-09T23:52:15.196Z,97.60
2018-08-09T23:54:43.488Z,97.40
2018-08-09T23:57:11.841Z,97.10
2018-08-09T23:59:40.145Z,96.90
